Terminal Aerodrome Forecast
Issued by NWS

Home | Current Version | Previous Version | Text Only | Print | Product List | Glossary On
Versions: 1 2 3 4 5 6 7 8 9 10 11 12 13 14 15 16 17 18 19 20 21 22
000
FTUS43 KTOP 291100
TAFMHK
TAF
KMHK 291126Z 2912/3012 21006KT P6SM VCTS BKN080CB BKN100
      TEMPO 2912/2914 6SM -TSRA BKN050CB OVC100
     FM291600 22008KT P6SM SCT050
     FM291900 23008KT P6SM VCTS BKN050CB
     FM300000 31003KT P6SM SKC=

USA.gov is the U.S. government's official web portal to all federal, state and local government web resources and services.